sensor_id;sensor_type;location;lat;lon;timestamp;P1;durP1;ratioP1;P2;durP2;ratioP2
39846;SDS011;25517;52.422;10.782;2023-09-19T00:01:05;2.38;;;0.90;;
39846;SDS011;25517;52.422;10.782;2023-09-19T00:03:34;5.70;;;1.48;;
39846;SDS011;25517;52.422;10.782;2023-09-19T00:06:03;5.28;;;1.50;;
39846;SDS011;25517;52.422;10.782;2023-09-19T00:08:30;2.83;;;1.15;;
39846;SDS011;25517;52.422;10.782;2023-09-19T00:10:55;3.45;;;1.10;;
39846;SDS011;25517;52.422;10.782;2023-09-19T00:13:21;1.00;;;0.90;;
39846;SDS011;25517;52.422;10.782;2023-09-19T00:15:47;2.13;;;1.20;;
39846;SDS011;25517;52.422;10.782;2023-09-19T00:18:13;2.63;;;1.23;;
39846;SDS011;25517;52.422;10.782;2023-09-19T00:20:40;1.65;;;1.30;;
39846;SDS011;25517;52.422;10.782;2023-09-19T00:23:07;1.52;;;1.25;;
39846;SDS011;25517;52.422;10.782;2023-09-19T00:25:33;3.08;;;1.10;;
39846;SDS011;25517;52.422;10.782;2023-09-19T00:28:06;3.63;;;1.70;;
39846;SDS011;25517;52.422;10.782;2023-09-19T00:30:32;3.63;;;1.50;;
39846;SDS011;25517;52.422;10.782;2023-09-19T00:32:58;1.65;;;1.33;;
39846;SDS011;25517;52.422;10.782;2023-09-19T00:35:25;2.65;;;1.48;;
39846;SDS011;25517;52.422;10.782;2023-09-19T00:37:51;6.03;;;2.03;;
39846;SDS011;25517;52.422;10.782;2023-09-19T00:40:17;5.95;;;1.70;;
39846;SDS011;25517;52.422;10.782;2023-09-19T00:42:46;3.50;;;1.63;;
39846;SDS011;25517;52.422;10.782;2023-09-19T00:45:13;7.97;;;1.67;;
39846;SDS011;25517;52.422;10.782;2023-09-19T00:47:41;4.88;;;1.25;;
39846;SDS011;25517;52.422;10.782;2023-09-19T00:50:09;4.18;;;1.42;;
39846;SDS011;25517;52.422;10.782;2023-09-19T00:52:39;9.63;;;1.42;;
39846;SDS011;25517;52.422;10.782;2023-09-19T00:55:09;3.20;;;1.52;;
39846;SDS011;25517;52.422;10.782;2023-09-19T00:57:36;2.95;;;1.50;;
39846;SDS011;25517;52.422;10.782;2023-09-19T01:00:05;5.55;;;1.58;;
39846;SDS011;25517;52.422;10.782;2023-09-19T01:02:33;2.78;;;1.50;;
39846;SDS011;25517;52.422;10.782;2023-09-19T01:05:00;6.35;;;1.70;;
39846;SDS011;25517;52.422;10.782;2023-09-19T01:07:26;3.10;;;2.00;;
39846;SDS011;25517;52.422;10.782;2023-09-19T01:09:55;4.75;;;1.92;;
39846;SDS011;25517;52.422;10.782;2023-09-19T01:12:25;3.40;;;1.52;;
39846;SDS011;25517;52.422;10.782;2023-09-19T01:15:04;3.60;;;1.63;;
39846;SDS011;25517;52.422;10.782;2023-09-19T01:18:11;3.28;;;1.67;;
39846;SDS011;25517;52.422;10.782;2023-09-19T01:26:18;4.70;;;1.90;;
39846;SDS011;25517;52.422;10.782;2023-09-19T01:29:13;5.28;;;1.95;;
39846;SDS011;25517;52.422;10.782;2023-09-19T01:31:54;4.47;;;1.83;;
39846;SDS011;25517;52.422;10.782;2023-09-19T01:34:26;2.25;;;1.55;;
39846;SDS011;25517;52.422;10.782;2023-09-19T01:36:51;2.40;;;1.60;;
39846;SDS011;25517;52.422;10.782;2023-09-19T01:39:17;4.20;;;1.77;;
39846;SDS011;25517;52.422;10.782;2023-09-19T01:41:58;2.60;;;1.70;;
39846;SDS011;25517;52.422;10.782;2023-09-19T01:47:50;4.32;;;1.98;;
39846;SDS011;25517;52.422;10.782;2023-09-19T01:53:14;6.15;;;2.90;;
39846;SDS011;25517;52.422;10.782;2023-09-19T01:55:47;6.63;;;2.78;;
39846;SDS011;25517;52.422;10.782;2023-09-19T01:58:20;6.47;;;2.67;;
39846;SDS011;25517;52.422;10.782;2023-09-19T02:01:04;6.68;;;2.40;;
39846;SDS011;25517;52.422;10.782;2023-09-19T02:03:31;4.07;;;2.30;;
39846;SDS011;25517;52.422;10.782;2023-09-19T02:05:58;8.30;;;2.13;;
39846;SDS011;25517;52.422;10.782;2023-09-19T02:08:24;4.70;;;2.60;;
39846;SDS011;25517;52.422;10.782;2023-09-19T02:10:49;2.60;;;1.90;;
39846;SDS011;25517;52.422;10.782;2023-09-19T02:13:16;5.15;;;2.45;;
39846;SDS011;25517;52.422;10.782;2023-09-19T02:15:45;5.78;;;2.67;;
39846;SDS011;25517;52.422;10.782;2023-09-19T02:18:12;6.35;;;2.92;;
39846;SDS011;25517;52.422;10.782;2023-09-19T02:20:38;5.60;;;2.67;;
39846;SDS011;25517;52.422;10.782;2023-09-19T02:23:04;3.72;;;2.67;;
39846;SDS011;25517;52.422;10.782;2023-09-19T02:25:30;6.13;;;2.90;;
39846;SDS011;25517;52.422;10.782;2023-09-19T02:27:56;4.85;;;2.70;;
39846;SDS011;25517;52.422;10.782;2023-09-19T02:30:24;4.55;;;2.60;;
39846;SDS011;25517;52.422;10.782;2023-09-19T02:32:52;5.43;;;2.85;;
39846;SDS011;25517;52.422;10.782;2023-09-19T02:35:18;7.40;;;2.83;;
39846;SDS011;25517;52.422;10.782;2023-09-19T02:37:44;3.78;;;2.72;;
39846;SDS011;25517;52.422;10.782;2023-09-19T02:40:10;4.72;;;3.28;;
39846;SDS011;25517;52.422;10.782;2023-09-19T02:42:53;5.30;;;2.53;;
39846;SDS011;25517;52.422;10.782;2023-09-19T02:45:19;5.15;;;2.83;;
39846;SDS011;25517;52.422;10.782;2023-09-19T02:47:45;3.95;;;3.05;;
39846;SDS011;25517;52.422;10.782;2023-09-19T02:50:12;5.95;;;2.85;;
39846;SDS011;25517;52.422;10.782;2023-09-19T02:52:43;5.40;;;2.60;;
39846;SDS011;25517;52.422;10.782;2023-09-19T02:55:12;8.65;;;2.63;;
39846;SDS011;25517;52.422;10.782;2023-09-19T02:57:39;5.38;;;2.80;;
39846;SDS011;25517;52.422;10.782;2023-09-19T03:00:08;5.75;;;3.10;;
39846;SDS011;25517;52.422;10.782;2023-09-19T03:02:37;3.78;;;2.70;;
39846;SDS011;25517;52.422;10.782;2023-09-19T03:05:04;6.72;;;3.13;;
39846;SDS011;25517;52.422;10.782;2023-09-19T03:07:30;4.13;;;2.63;;
39846;SDS011;25517;52.422;10.782;2023-09-19T03:09:56;5.55;;;2.65;;
39846;SDS011;25517;52.422;10.782;2023-09-19T03:12:22;6.45;;;2.97;;
39846;SDS011;25517;52.422;10.782;2023-09-19T03:14:47;5.07;;;2.72;;
39846;SDS011;25517;52.422;10.782;2023-09-19T03:17:13;8.05;;;3.15;;
39846;SDS011;25517;52.422;10.782;2023-09-19T03:19:39;4.85;;;2.92;;
39846;SDS011;25517;52.422;10.782;2023-09-19T03:22:05;5.53;;;2.67;;
39846;SDS011;25517;52.422;10.782;2023-09-19T03:24:30;6.18;;;2.90;;
39846;SDS011;25517;52.422;10.782;2023-09-19T03:26:58;5.32;;;2.88;;
39846;SDS011;25517;52.422;10.782;2023-09-19T03:29:24;10.27;;;2.90;;
39846;SDS011;25517;52.422;10.782;2023-09-19T03:31:50;9.40;;;3.45;;
39846;SDS011;25517;52.422;10.782;2023-09-19T03:34:16;8.68;;;2.70;;
39846;SDS011;25517;52.422;10.782;2023-09-19T03:36:42;4.68;;;2.80;;
39846;SDS011;25517;52.422;10.782;2023-09-19T03:39:07;6.30;;;3.30;;
39846;SDS011;25517;52.422;10.782;2023-09-19T03:41:33;8.77;;;3.17;;
39846;SDS011;25517;52.422;10.782;2023-09-19T03:44:01;8.60;;;3.03;;
39846;SDS011;25517;52.422;10.782;2023-09-19T03:46:27;6.53;;;3.20;;
39846;SDS011;25517;52.422;10.782;2023-09-19T03:48:53;5.25;;;3.42;;
39846;SDS011;25517;52.422;10.782;2023-09-19T03:51:19;7.85;;;3.50;;
39846;SDS011;25517;52.422;10.782;2023-09-19T03:53:45;7.60;;;4.05;;
39846;SDS011;25517;52.422;10.782;2023-09-19T03:56:11;5.72;;;3.00;;
39846;SDS011;25517;52.422;10.782;2023-09-19T03:58:36;5.30;;;3.15;;
39846;SDS011;25517;52.422;10.782;2023-09-19T04:01:05;7.68;;;4.57;;
39846;SDS011;25517;52.422;10.782;2023-09-19T04:03:32;5.57;;;3.42;;
39846;SDS011;25517;52.422;10.782;2023-09-19T04:06:14;6.32;;;2.80;;
39846;SDS011;25517;52.422;10.782;2023-09-19T04:08:40;6.97;;;3.17;;
39846;SDS011;25517;52.422;10.782;2023-09-19T04:11:06;5.30;;;2.75;;
39846;SDS011;25517;52.422;10.782;2023-09-19T04:13:32;3.95;;;3.10;;
39846;SDS011;25517;52.422;10.782;2023-09-19T04:15:57;9.15;;;4.25;;
39846;SDS011;25517;52.422;10.782;2023-09-19T04:18:23;5.47;;;3.72;;
39846;SDS011;25517;52.422;10.782;2023-09-19T04:20:49;6.45;;;4.40;;
39846;SDS011;25517;52.422;10.782;2023-09-19T04:23:15;13.90;;;4.85;;
39846;SDS011;25517;52.422;10.782;2023-09-19T04:25:41;7.50;;;4.57;;
39846;SDS011;25517;52.422;10.782;2023-09-19T04:28:07;11.45;;;4.30;;
39846;SDS011;25517;52.422;10.782;2023-09-19T04:30:35;9.27;;;4.63;;
39846;SDS011;25517;52.422;10.782;2023-09-19T04:33:01;8.32;;;3.90;;
39846;SDS011;25517;52.422;10.782;2023-09-19T04:35:26;12.02;;;4.65;;
39846;SDS011;25517;52.422;10.782;2023-09-19T04:37:54;14.00;;;4.82;;
39846;SDS011;25517;52.422;10.782;2023-09-19T04:40:19;8.30;;;4.35;;
39846;SDS011;25517;52.422;10.782;2023-09-19T04:42:45;8.15;;;4.32;;
39846;SDS011;25517;52.422;10.782;2023-09-19T04:45:21;10.13;;;4.70;;
39846;SDS011;25517;52.422;10.782;2023-09-19T04:47:50;6.22;;;4.25;;
39846;SDS011;25517;52.422;10.782;2023-09-19T04:50:15;14.38;;;4.80;;
39846;SDS011;25517;52.422;10.782;2023-09-19T04:52:42;7.65;;;4.40;;
39846;SDS011;25517;52.422;10.782;2023-09-19T04:55:18;6.95;;;4.57;;
39846;SDS011;25517;52.422;10.782;2023-09-19T04:57:44;8.05;;;4.25;;
39846;SDS011;25517;52.422;10.782;2023-09-19T05:00:13;7.65;;;3.92;;
39846;SDS011;25517;52.422;10.782;2023-09-19T05:02:40;10.25;;;4.30;;
39846;SDS011;25517;52.422;10.782;2023-09-19T05:05:07;8.50;;;4.32;;
39846;SDS011;25517;52.422;10.782;2023-09-19T05:07:33;8.80;;;4.25;;
39846;SDS011;25517;52.422;10.782;2023-09-19T05:09:59;7.05;;;4.35;;
39846;SDS011;25517;52.422;10.782;2023-09-19T05:12:28;9.57;;;4.43;;
39846;SDS011;25517;52.422;10.782;2023-09-19T05:14:54;8.18;;;5.40;;
39846;SDS011;25517;52.422;10.782;2023-09-19T05:17:20;10.07;;;5.15;;
39846;SDS011;25517;52.422;10.782;2023-09-19T05:19:46;9.50;;;5.30;;
39846;SDS011;25517;52.422;10.782;2023-09-19T05:22:11;10.88;;;5.32;;
39846;SDS011;25517;52.422;10.782;2023-09-19T05:24:37;12.35;;;6.28;;
39846;SDS011;25517;52.422;10.782;2023-09-19T05:27:04;11.18;;;5.68;;
39846;SDS011;25517;52.422;10.782;2023-09-19T05:29:32;13.55;;;6.35;;
39846;SDS011;25517;52.422;10.782;2023-09-19T05:31:58;9.18;;;5.65;;
39846;SDS011;25517;52.422;10.782;2023-09-19T05:34:24;13.25;;;6.55;;
39846;SDS011;25517;52.422;10.782;2023-09-19T05:36:53;14.65;;;6.53;;
39846;SDS011;25517;52.422;10.782;2023-09-19T05:39:19;15.40;;;6.60;;
39846;SDS011;25517;52.422;10.782;2023-09-19T05:41:46;11.77;;;6.75;;
39846;SDS011;25517;52.422;10.782;2023-09-19T05:44:12;10.35;;;6.15;;
39846;SDS011;25517;52.422;10.782;2023-09-19T05:46:39;13.68;;;6.90;;
39846;SDS011;25517;52.422;10.782;2023-09-19T05:49:04;9.95;;;6.10;;
39846;SDS011;25517;52.422;10.782;2023-09-19T05:51:30;13.23;;;7.45;;
39846;SDS011;25517;52.422;10.782;2023-09-19T05:53:56;16.33;;;6.93;;
39846;SDS011;25517;52.422;10.782;2023-09-19T05:56:23;21.58;;;6.75;;
39846;SDS011;25517;52.422;10.782;2023-09-19T05:58:48;18.05;;;6.75;;
39846;SDS011;25517;52.422;10.782;2023-09-19T06:01:18;13.00;;;6.82;;
39846;SDS011;25517;52.422;10.782;2023-09-19T06:03:43;7.20;;;6.05;;
39846;SDS011;25517;52.422;10.782;2023-09-19T06:06:09;11.93;;;6.20;;
39846;SDS011;25517;52.422;10.782;2023-09-19T06:08:35;13.45;;;5.68;;
39846;SDS011;25517;52.422;10.782;2023-09-19T06:11:00;14.18;;;5.88;;
39846;SDS011;25517;52.422;10.782;2023-09-19T06:13:29;10.13;;;5.32;;
39846;SDS011;25517;52.422;10.782;2023-09-19T06:15:54;11.18;;;5.57;;
39846;SDS011;25517;52.422;10.782;2023-09-19T06:18:23;9.80;;;4.93;;
39846;SDS011;25517;52.422;10.782;2023-09-19T06:20:51;15.80;;;6.13;;
39846;SDS011;25517;52.422;10.782;2023-09-19T06:23:17;12.52;;;5.18;;
39846;SDS011;25517;52.422;10.782;2023-09-19T06:25:43;18.23;;;5.63;;
39846;SDS011;25517;52.422;10.782;2023-09-19T06:28:08;12.13;;;4.95;;
39846;SDS011;25517;52.422;10.782;2023-09-19T06:30:37;9.63;;;5.07;;
39846;SDS011;25517;52.422;10.782;2023-09-19T06:33:06;16.92;;;5.57;;
39846;SDS011;25517;52.422;10.782;2023-09-19T06:35:33;15.80;;;4.65;;
39846;SDS011;25517;52.422;10.782;2023-09-19T06:38:01;15.93;;;5.63;;
39846;SDS011;25517;52.422;10.782;2023-09-19T06:40:28;11.70;;;5.78;;
39846;SDS011;25517;52.422;10.782;2023-09-19T06:42:53;9.70;;;5.65;;
39846;SDS011;25517;52.422;10.782;2023-09-19T06:45:21;11.35;;;5.28;;
39846;SDS011;25517;52.422;10.782;2023-09-19T06:47:50;15.23;;;5.60;;
39846;SDS011;25517;52.422;10.782;2023-09-19T06:50:20;9.70;;;5.60;;
39846;SDS011;25517;52.422;10.782;2023-09-19T06:52:47;8.95;;;4.93;;
39846;SDS011;25517;52.422;10.782;2023-09-19T06:55:15;12.07;;;5.90;;
39846;SDS011;25517;52.422;10.782;2023-09-19T06:57:44;12.07;;;4.88;;
39846;SDS011;25517;52.422;10.782;2023-09-19T07:00:10;15.63;;;5.55;;
39846;SDS011;25517;52.422;10.782;2023-09-19T07:02:58;11.38;;;5.25;;
39846;SDS011;25517;52.422;10.782;2023-09-19T07:05:36;11.52;;;5.20;;
39846;SDS011;25517;52.422;10.782;2023-09-19T07:08:04;13.27;;;6.20;;
39846;SDS011;25517;52.422;10.782;2023-09-19T07:10:31;12.10;;;5.95;;
39846;SDS011;25517;52.422;10.782;2023-09-19T07:13:01;14.85;;;5.85;;
39846;SDS011;25517;52.422;10.782;2023-09-19T07:15:37;11.48;;;5.15;;
39846;SDS011;25517;52.422;10.782;2023-09-19T07:18:06;11.77;;;4.85;;
39846;SDS011;25517;52.422;10.782;2023-09-19T07:20:35;10.85;;;5.47;;
39846;SDS011;25517;52.422;10.782;2023-09-19T07:23:02;11.98;;;5.72;;
39846;SDS011;25517;52.422;10.782;2023-09-19T07:25:28;14.70;;;5.82;;
39846;SDS011;25517;52.422;10.782;2023-09-19T07:27:59;9.75;;;4.82;;
39846;SDS011;25517;52.422;10.782;2023-09-19T07:30:25;15.90;;;5.13;;
39846;SDS011;25517;52.422;10.782;2023-09-19T07:32:51;13.90;;;5.70;;
39846;SDS011;25517;52.422;10.782;2023-09-19T07:35:17;14.13;;;5.35;;
39846;SDS011;25517;52.422;10.782;2023-09-19T07:37:45;12.35;;;5.20;;
39846;SDS011;25517;52.422;10.782;2023-09-19T07:40:14;17.63;;;5.30;;
39846;SDS011;25517;52.422;10.782;2023-09-19T07:42:40;10.95;;;5.63;;
39846;SDS011;25517;52.422;10.782;2023-09-19T07:45:07;13.65;;;5.15;;
39846;SDS011;25517;52.422;10.782;2023-09-19T07:47:33;16.27;;;5.70;;
39846;SDS011;25517;52.422;10.782;2023-09-19T07:50:01;10.18;;;4.55;;
39846;SDS011;25517;52.422;10.782;2023-09-19T07:52:27;13.20;;;5.40;;
39846;SDS011;25517;52.422;10.782;2023-09-19T07:54:53;12.70;;;5.15;;
39846;SDS011;25517;52.422;10.782;2023-09-19T07:57:19;16.58;;;5.53;;
39846;SDS011;25517;52.422;10.782;2023-09-19T07:59:45;17.70;;;5.47;;
39846;SDS011;25517;52.422;10.782;2023-09-19T08:02:11;11.90;;;4.50;;
39846;SDS011;25517;52.422;10.782;2023-09-19T08:04:44;12.57;;;4.10;;
39846;SDS011;25517;52.422;10.782;2023-09-19T08:07:14;12.38;;;4.80;;
39846;SDS011;25517;52.422;10.782;2023-09-19T08:09:40;11.60;;;4.50;;
39846;SDS011;25517;52.422;10.782;2023-09-19T08:12:06;13.77;;;4.60;;
39846;SDS011;25517;52.422;10.782;2023-09-19T08:14:36;12.35;;;4.60;;
39846;SDS011;25517;52.422;10.782;2023-09-19T08:17:03;14.77;;;4.03;;
39846;SDS011;25517;52.422;10.782;2023-09-19T08:19:30;9.52;;;3.63;;
39846;SDS011;25517;52.422;10.782;2023-09-19T08:21:57;9.32;;;3.40;;
39846;SDS011;25517;52.422;10.782;2023-09-19T08:24:29;8.95;;;3.13;;
39846;SDS011;25517;52.422;10.782;2023-09-19T08:26:55;14.23;;;3.58;;
39846;SDS011;25517;52.422;10.782;2023-09-19T08:29:22;8.30;;;2.72;;
39846;SDS011;25517;52.422;10.782;2023-09-19T08:31:55;11.02;;;3.35;;
39846;SDS011;25517;52.422;10.782;2023-09-19T08:34:25;10.50;;;3.10;;
39846;SDS011;25517;52.422;10.782;2023-09-19T08:36:51;10.10;;;3.22;;
39846;SDS011;25517;52.422;10.782;2023-09-19T08:41:47;9.90;;;2.28;;
39846;SDS011;25517;52.422;10.782;2023-09-19T08:44:12;11.43;;;2.72;;
39846;SDS011;25517;52.422;10.782;2023-09-19T08:46:39;11.30;;;2.80;;
39846;SDS011;25517;52.422;10.782;2023-09-19T08:49:08;11.55;;;3.22;;
39846;SDS011;25517;52.422;10.782;2023-09-19T08:51:47;7.22;;;2.60;;
39846;SDS011;25517;52.422;10.782;2023-09-19T08:54:22;9.63;;;2.78;;
39846;SDS011;25517;52.422;10.782;2023-09-19T08:56:54;9.60;;;2.53;;
39846;SDS011;25517;52.422;10.782;2023-09-19T08:59:22;10.45;;;2.88;;
39846;SDS011;25517;52.422;10.782;2023-09-19T09:01:52;9.50;;;3.30;;
39846;SDS011;25517;52.422;10.782;2023-09-19T09:04:19;10.13;;;2.47;;
39846;SDS011;25517;52.422;10.782;2023-09-19T09:06:45;11.80;;;2.70;;
39846;SDS011;25517;52.422;10.782;2023-09-19T09:09:13;12.30;;;3.10;;
39846;SDS011;25517;52.422;10.782;2023-09-19T09:11:42;7.45;;;2.35;;
39846;SDS011;25517;52.422;10.782;2023-09-19T09:14:07;8.55;;;2.83;;
39846;SDS011;25517;52.422;10.782;2023-09-19T09:16:33;6.28;;;2.20;;
39846;SDS011;25517;52.422;10.782;2023-09-19T09:18:59;7.15;;;2.45;;
39846;SDS011;25517;52.422;10.782;2023-09-19T09:21:25;8.88;;;2.35;;
39846;SDS011;25517;52.422;10.782;2023-09-19T09:23:51;9.40;;;2.58;;
39846;SDS011;25517;52.422;10.782;2023-09-19T09:26:26;8.35;;;2.42;;
39846;SDS011;25517;52.422;10.782;2023-09-19T09:29:03;7.72;;;2.95;;
39846;SDS011;25517;52.422;10.782;2023-09-19T09:31:29;7.47;;;3.30;;
39846;SDS011;25517;52.422;10.782;2023-09-19T09:33:55;8.35;;;2.58;;
39846;SDS011;25517;52.422;10.782;2023-09-19T09:36:33;5.45;;;2.67;;
39846;SDS011;25517;52.422;10.782;2023-09-19T09:39:01;10.25;;;2.65;;
39846;SDS011;25517;52.422;10.782;2023-09-19T09:41:40;8.00;;;2.38;;
39846;SDS011;25517;52.422;10.782;2023-09-19T09:44:17;9.70;;;2.67;;
39846;SDS011;25517;52.422;10.782;2023-09-19T09:46:44;12.63;;;2.45;;
39846;SDS011;25517;52.422;10.782;2023-09-19T09:49:22;12.07;;;2.72;;
39846;SDS011;25517;52.422;10.782;2023-09-19T09:51:58;7.00;;;2.47;;
39846;SDS011;25517;52.422;10.782;2023-09-19T09:54:41;4.97;;;1.80;;
39846;SDS011;25517;52.422;10.782;2023-09-19T09:57:24;9.75;;;2.47;;
39846;SDS011;25517;52.422;10.782;2023-09-19T09:59:54;7.35;;;2.70;;
39846;SDS011;25517;52.422;10.782;2023-09-19T10:02:41;9.75;;;2.60;;
39846;SDS011;25517;52.422;10.782;2023-09-19T10:07:49;9.05;;;2.97;;
39846;SDS011;25517;52.422;10.782;2023-09-19T10:15:37;9.00;;;2.90;;
39846;SDS011;25517;52.422;10.782;2023-09-19T10:18:06;6.15;;;2.60;;
39846;SDS011;25517;52.422;10.782;2023-09-19T10:20:36;11.85;;;2.45;;
39846;SDS011;25517;52.422;10.782;2023-09-19T10:23:05;12.27;;;2.50;;
39846;SDS011;25517;52.422;10.782;2023-09-19T10:25:39;8.52;;;2.60;;
39846;SDS011;25517;52.422;10.782;2023-09-19T10:28:06;9.05;;;2.60;;
39846;SDS011;25517;52.422;10.782;2023-09-19T10:33:12;7.63;;;2.78;;
39846;SDS011;25517;52.422;10.782;2023-09-19T10:35:39;9.15;;;2.42;;
39846;SDS011;25517;52.422;10.782;2023-09-19T10:38:07;7.38;;;2.70;;
39846;SDS011;25517;52.422;10.782;2023-09-19T10:40:35;7.50;;;2.20;;
39846;SDS011;25517;52.422;10.782;2023-09-19T10:43:05;9.43;;;2.50;;
39846;SDS011;25517;52.422;10.782;2023-09-19T10:45:31;9.20;;;2.78;;
39846;SDS011;25517;52.422;10.782;2023-09-19T10:48:02;8.35;;;2.22;;
39846;SDS011;25517;52.422;10.782;2023-09-19T10:50:50;5.70;;;2.13;;
39846;SDS011;25517;52.422;10.782;2023-09-19T10:53:16;4.65;;;2.17;;
39846;SDS011;25517;52.422;10.782;2023-09-19T10:55:47;6.55;;;2.38;;
39846;SDS011;25517;52.422;10.782;2023-09-19T10:58:29;7.53;;;2.50;;
39846;SDS011;25517;52.422;10.782;2023-09-19T11:03:40;7.55;;;2.38;;
39846;SDS011;25517;52.422;10.782;2023-09-19T11:06:16;9.77;;;2.88;;
39846;SDS011;25517;52.422;10.782;2023-09-19T11:08:56;10.60;;;2.65;;
39846;SDS011;25517;52.422;10.782;2023-09-19T11:30:32;5.70;;;2.55;;
39846;SDS011;25517;52.422;10.782;2023-09-19T11:43:51;12.30;;;3.33;;
39846;SDS011;25517;52.422;10.782;2023-09-19T11:46:20;7.15;;;2.67;;
39846;SDS011;25517;52.422;10.782;2023-09-19T11:48:49;9.75;;;2.88;;
39846;SDS011;25517;52.422;10.782;2023-09-19T11:51:19;9.57;;;2.88;;
39846;SDS011;25517;52.422;10.782;2023-09-19T11:53:52;9.07;;;2.63;;
39846;SDS011;25517;52.422;10.782;2023-09-19T11:56:19;12.23;;;3.05;;
39846;SDS011;25517;52.422;10.782;2023-09-19T11:58:51;8.32;;;2.60;;
39846;SDS011;25517;52.422;10.782;2023-09-19T12:03:51;8.55;;;2.90;;
39846;SDS011;25517;52.422;10.782;2023-09-19T12:06:19;6.05;;;2.67;;
39846;SDS011;25517;52.422;10.782;2023-09-19T12:08:46;8.77;;;2.60;;
39846;SDS011;25517;52.422;10.782;2023-09-19T12:11:14;9.27;;;2.63;;
39846;SDS011;25517;52.422;10.782;2023-09-19T12:13:45;7.15;;;2.22;;
39846;SDS011;25517;52.422;10.782;2023-09-19T12:16:12;7.55;;;2.65;;
39846;SDS011;25517;52.422;10.782;2023-09-19T12:21:30;7.22;;;2.83;;
39846;SDS011;25517;52.422;10.782;2023-09-19T12:26:41;5.88;;;2.58;;
39846;SDS011;25517;52.422;10.782;2023-09-19T12:31:48;10.60;;;2.88;;
39846;SDS011;25517;52.422;10.782;2023-09-19T12:34:22;12.63;;;3.80;;
39846;SDS011;25517;52.422;10.782;2023-09-19T12:37:03;8.80;;;2.83;;
39846;SDS011;25517;52.422;10.782;2023-09-19T12:39:31;8.15;;;3.08;;
39846;SDS011;25517;52.422;10.782;2023-09-19T12:41:56;10.05;;;2.88;;
39846;SDS011;25517;52.422;10.782;2023-09-19T12:44:22;8.98;;;2.88;;
39846;SDS011;25517;52.422;10.782;2023-09-19T12:46:50;7.32;;;3.50;;
39846;SDS011;25517;52.422;10.782;2023-09-19T12:49:19;9.30;;;3.03;;
39846;SDS011;25517;52.422;10.782;2023-09-19T12:51:48;8.57;;;2.65;;
39846;SDS011;25517;52.422;10.782;2023-09-19T12:54:14;5.88;;;2.78;;
39846;SDS011;25517;52.422;10.782;2023-09-19T12:56:42;11.20;;;3.30;;
39846;SDS011;25517;52.422;10.782;2023-09-19T12:59:09;8.05;;;3.70;;
39846;SDS011;25517;52.422;10.782;2023-09-19T13:01:38;9.13;;;3.13;;
39846;SDS011;25517;52.422;10.782;2023-09-19T13:06:43;8.23;;;2.80;;
39846;SDS011;25517;52.422;10.782;2023-09-19T13:09:10;6.82;;;3.03;;
39846;SDS011;25517;52.422;10.782;2023-09-19T13:11:36;8.23;;;3.08;;
39846;SDS011;25517;52.422;10.782;2023-09-19T13:14:14;10.00;;;3.10;;
39846;SDS011;25517;52.422;10.782;2023-09-19T13:19:39;7.45;;;2.60;;
39846;SDS011;25517;52.422;10.782;2023-09-19T13:22:05;8.32;;;3.20;;
39846;SDS011;25517;52.422;10.782;2023-09-19T13:24:51;8.85;;;3.33;;
39846;SDS011;25517;52.422;10.782;2023-09-19T13:27:16;11.55;;;3.10;;
39846;SDS011;25517;52.422;10.782;2023-09-19T13:29:42;7.90;;;2.95;;
39846;SDS011;25517;52.422;10.782;2023-09-19T13:32:07;7.13;;;3.05;;
39846;SDS011;25517;52.422;10.782;2023-09-19T13:34:36;12.35;;;3.40;;
39846;SDS011;25517;52.422;10.782;2023-09-19T13:37:02;6.95;;;3.03;;
39846;SDS011;25517;52.422;10.782;2023-09-19T13:39:29;7.70;;;2.70;;
39846;SDS011;25517;52.422;10.782;2023-09-19T13:41:55;6.80;;;2.65;;
39846;SDS011;25517;52.422;10.782;2023-09-19T13:44:20;12.40;;;3.08;;
39846;SDS011;25517;52.422;10.782;2023-09-19T13:46:46;8.13;;;3.47;;
39846;SDS011;25517;52.422;10.782;2023-09-19T13:49:11;9.20;;;3.20;;
39846;SDS011;25517;52.422;10.782;2023-09-19T13:51:37;7.95;;;3.08;;
39846;SDS011;25517;52.422;10.782;2023-09-19T13:54:03;7.45;;;2.88;;
39846;SDS011;25517;52.422;10.782;2023-09-19T13:56:28;6.38;;;2.60;;
39846;SDS011;25517;52.422;10.782;2023-09-19T13:58:55;10.02;;;3.47;;
39846;SDS011;25517;52.422;10.782;2023-09-19T14:01:20;7.65;;;2.95;;
39846;SDS011;25517;52.422;10.782;2023-09-19T14:03:46;7.43;;;3.20;;
39846;SDS011;25517;52.422;10.782;2023-09-19T14:06:16;7.57;;;2.78;;
39846;SDS011;25517;52.422;10.782;2023-09-19T14:08:43;7.80;;;3.00;;
39846;SDS011;25517;52.422;10.782;2023-09-19T14:11:12;10.35;;;3.30;;
39846;SDS011;25517;52.422;10.782;2023-09-19T14:13:39;8.00;;;2.60;;
39846;SDS011;25517;52.422;10.782;2023-09-19T14:16:05;6.45;;;2.95;;
39846;SDS011;25517;52.422;10.782;2023-09-19T14:18:32;8.25;;;3.70;;
39846;SDS011;25517;52.422;10.782;2023-09-19T14:20:57;8.95;;;3.45;;
39846;SDS011;25517;52.422;10.782;2023-09-19T14:23:23;8.40;;;3.15;;
39846;SDS011;25517;52.422;10.782;2023-09-19T14:25:50;9.45;;;3.15;;
39846;SDS011;25517;52.422;10.782;2023-09-19T14:28:16;7.15;;;3.35;;
39846;SDS011;25517;52.422;10.782;2023-09-19T14:30:43;8.95;;;2.92;;
39846;SDS011;25517;52.422;10.782;2023-09-19T14:33:08;8.25;;;3.00;;
39846;SDS011;25517;52.422;10.782;2023-09-19T14:35:36;8.82;;;2.97;;
39846;SDS011;25517;52.422;10.782;2023-09-19T14:38:03;6.75;;;2.80;;
39846;SDS011;25517;52.422;10.782;2023-09-19T14:40:28;7.43;;;3.10;;
39846;SDS011;25517;52.422;10.782;2023-09-19T14:42:54;9.80;;;3.80;;
39846;SDS011;25517;52.422;10.782;2023-09-19T14:45:20;7.50;;;2.80;;
39846;SDS011;25517;52.422;10.782;2023-09-19T14:47:46;9.85;;;3.78;;
39846;SDS011;25517;52.422;10.782;2023-09-19T14:50:12;10.40;;;3.15;;
39846;SDS011;25517;52.422;10.782;2023-09-19T14:52:38;7.10;;;3.33;;
39846;SDS011;25517;52.422;10.782;2023-09-19T14:55:04;12.07;;;3.72;;
39846;SDS011;25517;52.422;10.782;2023-09-19T14:57:31;8.75;;;3.05;;
39846;SDS011;25517;52.422;10.782;2023-09-19T14:59:56;9.43;;;3.08;;
39846;SDS011;25517;52.422;10.782;2023-09-19T15:02:22;8.95;;;3.50;;
39846;SDS011;25517;52.422;10.782;2023-09-19T15:04:48;4.88;;;2.72;;
39846;SDS011;25517;52.422;10.782;2023-09-19T15:07:15;8.48;;;2.90;;
39846;SDS011;25517;52.422;10.782;2023-09-19T15:09:42;9.85;;;3.05;;
39846;SDS011;25517;52.422;10.782;2023-09-19T15:12:08;12.02;;;3.17;;
39846;SDS011;25517;52.422;10.782;2023-09-19T15:14:39;6.80;;;3.17;;
39846;SDS011;25517;52.422;10.782;2023-09-19T15:17:06;7.35;;;3.00;;
39846;SDS011;25517;52.422;10.782;2023-09-19T15:19:32;5.78;;;3.00;;
39846;SDS011;25517;52.422;10.782;2023-09-19T15:21:58;8.23;;;3.28;;
39846;SDS011;25517;52.422;10.782;2023-09-19T15:24:23;6.07;;;2.92;;
39846;SDS011;25517;52.422;10.782;2023-09-19T15:26:51;9.07;;;2.90;;
39846;SDS011;25517;52.422;10.782;2023-09-19T15:29:17;11.60;;;3.15;;
39846;SDS011;25517;52.422;10.782;2023-09-19T15:31:42;8.70;;;2.88;;
39846;SDS011;25517;52.422;10.782;2023-09-19T15:34:08;6.88;;;2.75;;
39846;SDS011;25517;52.422;10.782;2023-09-19T15:36:34;7.03;;;3.10;;
39846;SDS011;25517;52.422;10.782;2023-09-19T15:39:02;8.35;;;3.22;;
39846;SDS011;25517;52.422;10.782;2023-09-19T15:41:34;7.38;;;3.33;;
39846;SDS011;25517;52.422;10.782;2023-09-19T15:44:02;9.82;;;3.35;;
39846;SDS011;25517;52.422;10.782;2023-09-19T15:46:30;7.15;;;3.35;;
39846;SDS011;25517;52.422;10.782;2023-09-19T15:48:58;6.82;;;2.53;;
39846;SDS011;25517;52.422;10.782;2023-09-19T15:51:25;7.32;;;3.00;;